Time;durP1;ratioP1;P1;durP2;ratioP2;P2;SDS_P1;SDS_P2;PMS_P1;PMS_P2;Temp;Humidity;BMP_temperature;BMP_pressure;BME280_temperature;BME280_humidity;BME280_pressure;Samples;Min_cycle;Max_cycle;Signal;HPM_P1;HPM_P2
2022/06/30 00:00:29;;;;;;;2.90;2.03;;;16.90;99.90;;;;;;5091866;28;20188;-79
2022/06/30 00:02:54;;;;;;;5.90;3.40;;;16.90;99.90;;;;;;5089777;28;20610;-79
2022/06/30 00:05:20;;;;;;;6.47;2.93;;;16.90;99.90;;;;;;5082976;28;20192;-80
2022/06/30 00:07:46;;;;;;;8.57;4.10;;;16.90;99.90;;;;;;5073853;28;20677;-81
2022/06/30 00:10:12;;;;;;;6.20;3.13;;;16.90;99.90;;;;;;5070479;28;20435;-79
2022/06/30 00:12:38;;;;;;;8.33;3.30;;;16.90;99.90;;;;;;5067296;28;20213;-75
2022/06/30 00:15:04;;;;;;;20.13;3.90;;;16.90;99.90;;;;;;5069911;28;20177;-80
2022/06/30 00:17:30;;;;;;;8.33;2.83;;;16.90;99.90;;;;;;5070796;28;20442;-80
2022/06/30 00:19:56;;;;;;;6.37;3.17;;;16.80;99.90;;;;;;5071937;28;20427;-79
2022/06/30 00:22:21;;;;;;;13.10;3.60;;;16.80;99.90;;;;;;5069223;28;20208;-79
2022/06/30 00:24:47;;;;;;;4.40;2.80;;;16.70;99.90;;;;;;5072865;28;20189;-81
2022/06/30 00:27:13;;;;;;;7.43;2.80;;;16.70;99.90;;;;;;5080171;28;20243;-80
2022/06/30 00:29:39;;;;;;;3.77;2.83;;;16.70;99.90;;;;;;5082106;28;20185;-78
2022/06/30 00:32:05;;;;;;;7.00;2.87;;;16.60;99.90;;;;;;5084459;28;20581;-78
2022/06/30 00:34:30;;;;;;;5.83;3.00;;;16.60;99.90;;;;;;5084457;28;20954;-80
2022/06/30 00:36:56;;;;;;;5.10;3.03;;;16.50;99.90;;;;;;5092396;28;20797;-79
2022/06/30 00:39:22;;;;;;;5.20;2.83;;;16.50;99.90;;;;;;5074750;28;20265;-76
2022/06/30 00:41:48;;;;;;;21.00;4.20;;;16.50;99.90;;;;;;5077917;28;20266;-80
2022/06/30 00:44:14;;;;;;;4.97;2.67;;;16.50;99.90;;;;;;5080147;28;20431;-80
2022/06/30 00:46:40;;;;;;;11.27;3.80;;;16.50;99.90;;;;;;5083368;28;20184;-78
2022/06/30 00:49:06;;;;;;;4.80;3.00;;;16.40;99.90;;;;;;5088301;28;20179;-78
2022/06/30 00:51:32;;;;;;;6.27;2.70;;;16.40;99.90;;;;;;5083659;28;20419;-80
2022/06/30 00:54:00;;;;;;;17.53;3.60;;;16.40;99.90;;;;;;5085225;28;20866;-79
2022/06/30 00:56:27;;;;;;;7.13;3.50;;;16.40;99.90;;;;;;5080553;28;20685;-78
2022/06/30 00:58:55;;;;;;;7.00;2.80;;;16.40;99.90;;;;;;5088259;28;20435;-78
2022/06/30 01:01:23;;;;;;;5.60;3.37;;;16.40;99.90;;;;;;5077562;28;20983;-82
2022/06/30 01:03:51;;;;;;;8.53;3.10;;;16.30;99.90;;;;;;5099460;28;20465;-79
2022/06/30 01:06:17;;;;;;;3.93;2.83;;;16.30;99.90;;;;;;5091007;28;20410;-78
2022/06/30 01:08:44;;;;;;;8.53;2.43;;;16.30;99.90;;;;;;5095916;28;20489;-79
2022/06/30 01:13:54;;;;;;;8.10;2.67;;;16.30;99.90;;;;;;5096145;28;20484;-78
2022/06/30 01:16:22;;;;;;;7.23;3.10;;;16.30;99.90;;;;;;5099747;28;20426;-80
2022/06/30 01:18:48;;;;;;;12.00;3.00;;;16.20;99.90;;;;;;5089170;28;20179;-80
2022/06/30 01:21:13;;;;;;;12.33;3.30;;;16.20;99.90;;;;;;5087282;28;20914;-78
2022/06/30 01:23:39;;;;;;;3.27;2.27;;;16.20;99.90;;;;;;5088650;28;20196;-78
2022/06/30 01:26:04;;;;;;;8.60;3.30;;;16.20;99.90;;;;;;5089923;28;20184;-80
2022/06/30 01:28:30;;;;;;;14.30;2.77;;;16.20;99.90;;;;;;5088082;28;20190;-78
2022/06/30 01:30:56;;;;;;;6.13;2.37;;;16.10;99.90;;;;;;5089674;28;20211;-81
2022/06/30 01:33:22;;;;;;;4.53;2.53;;;16.10;99.90;;;;;;5082561;28;20665;-78
2022/06/30 01:35:48;;;;;;;9.83;2.67;;;16.10;99.90;;;;;;5100467;28;20653;-79
2022/06/30 01:38:13;;;;;;;9.40;2.70;;;16.10;99.90;;;;;;5098582;27;20434;-80
2022/06/30 01:40:39;;;;;;;4.93;2.77;;;16.00;99.90;;;;;;5093423;28;20188;-79
2022/06/30 01:43:06;;;;;;;9.57;2.67;;;16.00;99.90;;;;;;5093317;28;20227;-79
2022/06/30 01:45:32;;;;;;;10.13;3.30;;;16.00;99.90;;;;;;5101700;28;20226;-78
2022/06/30 01:47:59;;;;;;;5.97;2.87;;;15.90;99.90;;;;;;5083928;28;20430;-78
2022/06/30 01:50:27;;;;;;;6.10;3.80;;;15.90;99.90;;;;;;5089787;28;20422;-78
2022/06/30 01:52:54;;;;;;;6.03;3.47;;;15.90;99.90;;;;;;5087293;28;20558;-82
2022/06/30 01:55:20;;;;;;;8.23;2.90;;;15.90;99.90;;;;;;5089512;28;20430;-75
2022/06/30 01:57:45;;;;;;;5.20;3.20;;;15.90;99.90;;;;;;5087644;28;20450;-84
2022/06/30 02:00:14;;;;;;;6.47;2.60;;;15.90;99.90;;;;;;5100386;28;20207;-80
2022/06/30 02:02:41;;;;;;;11.03;3.97;;;15.80;99.90;;;;;;5087126;28;20671;-77
2022/06/30 02:05:07;;;;;;;4.20;2.97;;;15.80;99.90;;;;;;5087564;28;20430;-79
2022/06/30 02:07:36;;;;;;;3.83;2.50;;;15.80;99.90;;;;;;5092180;28;20420;-78
2022/06/30 02:10:03;;;;;;;5.67;3.30;;;15.80;99.90;;;;;;5094993;28;20437;-80
2022/06/30 02:12:47;;;;;;;5.43;2.83;;;15.70;99.90;;;;;;5099255;28;20455;-78
2022/06/30 02:15:23;;;;;;;7.60;3.10;;;15.70;99.90;;;;;;5091754;28;20433;-75
2022/06/30 02:17:53;;;;;;;7.13;3.50;;;15.70;99.90;;;;;;5079799;28;20430;-80
2022/06/30 02:20:26;;;;;;;22.73;4.03;;;15.70;99.90;;;;;;5098947;28;20413;-81
2022/06/30 02:22:55;;;;;;;5.97;3.50;;;15.70;99.90;;;;;;5092186;28;20466;-78
2022/06/30 02:25:21;;;;;;;9.37;3.10;;;15.70;99.90;;;;;;5089303;28;20441;-79
2022/06/30 02:27:47;;;;;;;5.80;2.97;;;15.70;99.90;;;;;;5075030;28;20416;-78
2022/06/30 02:30:13;;;;;;;6.90;2.83;;;15.70;99.90;;;;;;5077491;28;20441;-80
2022/06/30 02:32:39;;;;;;;13.70;3.67;;;15.70;99.90;;;;;;5098474;28;20648;-79
2022/06/30 02:35:05;;;;;;;4.80;3.17;;;15.60;99.90;;;;;;5094288;28;20238;-78
2022/06/30 02:37:30;;;;;;;13.43;4.07;;;15.60;99.90;;;;;;5094097;28;20176;-78
2022/06/30 02:39:56;;;;;;;4.57;3.00;;;15.50;99.90;;;;;;5092708;28;20429;-79
2022/06/30 02:42:22;;;;;;;8.70;3.27;;;15.50;99.90;;;;;;5095264;28;20272;-79
2022/06/30 02:44:48;;;;;;;3.97;2.50;;;15.50;99.90;;;;;;5082841;28;20555;-80
2022/06/30 02:47:13;;;;;;;4.10;2.63;;;15.50;99.90;;;;;;5101631;28;20684;-79
2022/06/30 02:49:39;;;;;;;7.33;2.53;;;15.40;99.90;;;;;;5095406;28;20660;-78
2022/06/30 02:52:06;;;;;;;6.53;3.70;;;15.40;99.90;;;;;;5091118;28;20205;-79
2022/06/30 02:54:32;;;;;;;12.60;3.73;;;15.40;99.90;;;;;;5098851;28;20232;-78
2022/06/30 02:56:58;;;;;;;4.70;3.13;;;15.40;99.90;;;;;;5090606;28;20801;-78
2022/06/30 02:59:24;;;;;;;9.33;2.90;;;15.40;99.90;;;;;;5094901;28;20418;-78
2022/06/30 03:01:50;;;;;;;6.00;3.40;;;15.40;99.90;;;;;;5087470;28;20303;-76
2022/06/30 03:04:15;;;;;;;7.53;3.13;;;15.30;99.90;;;;;;5088921;28;20184;-79
2022/06/30 03:06:41;;;;;;;5.13;2.57;;;15.30;99.90;;;;;;5088519;28;20590;-79
2022/06/30 03:09:07;;;;;;;9.83;3.10;;;15.30;99.90;;;;;;5088447;28;20180;-78
2022/06/30 03:11:32;;;;;;;8.50;3.40;;;15.30;99.90;;;;;;5078406;28;20649;-79
2022/06/30 03:13:58;;;;;;;7.50;3.93;;;15.30;99.90;;;;;;5084406;28;20185;-78
2022/06/30 03:16:23;;;;;;;7.53;3.00;;;15.30;99.90;;;;;;5091522;28;20184;-79
2022/06/30 03:18:49;;;;;;;7.53;2.90;;;15.20;99.90;;;;;;5092739;28;20180;-79
2022/06/30 03:21:15;;;;;;;6.37;2.87;;;15.20;99.90;;;;;;5091554;28;20208;-75
2022/06/30 03:23:40;;;;;;;5.30;3.03;;;15.20;99.90;;;;;;5091537;28;20204;-78
2022/06/30 03:26:06;;;;;;;4.10;2.70;;;15.20;99.90;;;;;;5081043;28;20211;-79
2022/06/30 03:28:33;;;;;;;5.80;2.63;;;15.20;99.90;;;;;;5089240;28;20207;-77
2022/06/30 03:30:59;;;;;;;7.53;3.10;;;15.20;99.90;;;;;;5091466;28;20192;-74
2022/06/30 03:33:25;;;;;;;5.80;3.00;;;15.10;99.90;;;;;;5090517;28;20483;-78
2022/06/30 03:35:52;;;;;;;6.53;3.70;;;15.10;99.90;;;;;;5092251;28;20521;-79
2022/06/30 03:38:18;;;;;;;4.70;2.63;;;15.10;99.90;;;;;;5092169;28;20449;-76
2022/06/30 03:40:44;;;;;;;7.77;3.00;;;15.10;99.90;;;;;;5090714;28;20803;-78
2022/06/30 03:43:09;;;;;;;4.00;2.60;;;15.10;99.90;;;;;;5091114;28;20212;-79
2022/06/30 03:45:35;;;;;;;9.20;2.90;;;15.10;99.90;;;;;;5092550;28;20207;-79
2022/06/30 03:48:02;;;;;;;5.80;3.27;;;15.10;99.90;;;;;;5091781;28;20177;-76
2022/06/30 03:50:30;;;;;;;9.00;3.10;;;15.10;99.90;;;;;;5092028;28;20172;-79
2022/06/30 03:52:56;;;;;;;7.40;3.10;;;15.10;99.90;;;;;;5086509;28;20946;-79
2022/06/30 03:55:22;;;;;;;8.43;3.50;;;15.10;99.90;;;;;;5091638;28;20455;-74
2022/06/30 03:57:48;;;;;;;5.63;2.37;;;15.10;99.90;;;;;;5091582;28;20430;-76
2022/06/30 04:00:14;;;;;;;14.03;4.03;;;15.10;99.90;;;;;;5091709;28;20422;-78
2022/06/30 04:02:40;;;;;;;4.00;3.17;;;15.10;99.90;;;;;;5089743;28;20956;-79
2022/06/30 04:05:06;;;;;;;3.37;2.47;;;15.10;99.90;;;;;;5091216;28;20489;-78
2022/06/30 04:07:32;;;;;;;6.87;3.50;;;15.10;99.90;;;;;;5090308;28;20188;-79
2022/06/30 04:09:57;;;;;;;7.57;3.77;;;15.10;99.90;;;;;;5092065;28;20434;-76
2022/06/30 04:12:23;;;;;;;16.73;3.87;;;15.10;99.90;;;;;;5089267;28;20294;-79
2022/06/30 04:14:49;;;;;;;8.77;3.37;;;15.20;99.90;;;;;;5092075;28;20177;-76
2022/06/30 04:17:14;;;;;;;7.40;3.53;;;15.20;99.90;;;;;;5091254;28;20672;-75
2022/06/30 04:19:40;;;;;;;15.27;3.97;;;15.20;99.90;;;;;;5091225;28;20172;-77
2022/06/30 04:22:06;;;;;;;6.23;3.47;;;15.30;99.90;;;;;;5087972;28;20212;-77
2022/06/30 04:24:32;;;;;;;7.60;4.50;;;15.30;99.90;;;;;;5089907;28;20276;-79
2022/06/30 04:26:57;;;;;;;14.53;4.70;;;15.40;99.90;;;;;;5090620;28;20237;-76
2022/06/30 04:29:23;;;;;;;8.30;4.77;;;15.40;99.90;;;;;;5089970;28;20932;-76
2022/06/30 04:34:33;;;;;;;6.70;4.00;;;15.50;99.90;;;;;;5088622;28;20230;-76
2022/06/30 04:36:58;;;;;;;12.50;3.57;;;15.60;99.90;;;;;;5080134;28;20410;-76
2022/06/30 04:39:24;;;;;;;9.70;3.70;;;15.60;99.90;;;;;;5090979;28;20190;-78
2022/06/30 04:41:50;;;;;;;6.00;3.60;;;15.70;99.90;;;;;;5089858;28;20211;-77
2022/06/30 04:44:15;;;;;;;8.30;5.07;;;15.70;99.90;;;;;;5091312;28;20180;-77
2022/06/30 04:46:41;;;;;;;7.93;4.63;;;15.80;99.90;;;;;;5079617;28;20217;-74
2022/06/30 04:49:07;;;;;;;6.40;3.70;;;15.80;99.90;;;;;;5084203;28;20193;-79
2022/06/30 04:51:33;;;;;;;8.13;3.43;;;15.90;99.90;;;;;;5084805;28;20188;-78
2022/06/30 04:53:58;;;;;;;7.27;4.47;;;15.90;99.90;;;;;;5087764;28;20422;-80
2022/06/30 04:56:24;;;;;;;6.07;3.87;;;16.00;99.90;;;;;;5085047;28;20176;-77
2022/06/30 04:58:50;;;;;;;8.27;3.67;;;16.10;99.90;;;;;;5084321;28;20700;-81
2022/06/30 05:01:15;;;;;;;5.33;3.53;;;16.10;99.90;;;;;;5070069;28;20181;-77
2022/06/30 05:03:41;;;;;;;11.53;3.63;;;16.20;99.90;;;;;;5070473;28;20196;-80
2022/06/30 05:06:08;;;;;;;8.40;4.17;;;16.20;99.90;;;;;;5077678;28;20188;-76
2022/06/30 05:08:34;;;;;;;5.57;3.60;;;16.30;99.90;;;;;;5080218;28;20426;-80
2022/06/30 05:11:00;;;;;;;6.63;4.40;;;16.40;99.90;;;;;;5081146;28;20435;-81
2022/06/30 05:13:26;;;;;;;5.27;3.80;;;16.40;99.90;;;;;;5088785;28;20483;-79
2022/06/30 05:15:52;;;;;;;4.60;3.30;;;16.50;99.90;;;;;;5087044;28;20423;-76
2022/06/30 05:18:18;;;;;;;10.07;3.30;;;16.60;99.90;;;;;;5086710;28;20416;-79
2022/06/30 05:20:43;;;;;;;8.87;4.10;;;16.70;99.90;;;;;;5070153;28;20187;-77
2022/06/30 05:23:09;;;;;;;12.40;4.27;;;16.80;99.90;;;;;;5075778;28;20238;-76
2022/06/30 05:28:21;;;;;;;6.03;4.03;;;16.90;99.90;;;;;;5086963;28;20414;-81
2022/06/30 05:30:48;;;;;;;11.50;3.50;;;17.00;99.90;;;;;;5086431;28;20450;-78
2022/06/30 05:33:13;;;;;;;7.60;4.33;;;17.10;99.90;;;;;;5086766;28;20457;-76
2022/06/30 05:35:40;;;;;;;10.67;4.67;;;17.10;99.90;;;;;;5084983;28;20415;-78
2022/06/30 05:38:06;;;;;;;9.00;4.03;;;17.20;99.90;;;;;;5099692;28;20195;-77
2022/06/30 05:40:32;;;;;;;6.93;3.30;;;17.30;99.90;;;;;;5106955;28;20432;-79
2022/06/30 05:42:58;;;;;;;15.37;4.80;;;17.30;99.90;;;;;;5105276;28;20454;-83
2022/06/30 05:45:24;;;;;;;5.97;3.50;;;17.40;99.90;;;;;;5102195;28;20188;-78
2022/06/30 05:47:53;;;;;;;6.77;3.90;;;17.50;99.90;;;;;;5087315;28;20271;-79
2022/06/30 05:50:20;;;;;;;11.93;3.20;;;17.60;99.90;;;;;;5082865;28;20173;-79
2022/06/30 05:52:49;;;;;;;8.47;2.90;;;17.70;99.90;;;;;;5078344;28;20461;-78
2022/06/30 05:55:14;;;;;;;7.63;3.67;;;17.80;99.90;;;;;;5084263;28;20463;-80
2022/06/30 05:57:58;;;;;;;7.67;4.00;;;18.00;99.90;;;;;;5084846;28;20484;-78
2022/06/30 06:00:27;;;;;;;6.40;3.80;;;18.00;99.90;;;;;;5087440;28;20730;-81
2022/06/30 06:02:53;;;;;;;10.17;4.90;;;18.10;99.90;;;;;;5088104;28;20630;-79
2022/06/30 06:05:19;;;;;;;5.40;3.33;;;18.10;99.90;;;;;;5082261;28;20423;-80
2022/06/30 06:07:45;;;;;;;7.93;3.77;;;18.20;99.90;;;;;;5079763;28;20411;-82
2022/06/30 06:10:13;;;;;;;5.37;3.40;;;18.30;99.90;;;;;;5080348;28;20192;-79
2022/06/30 06:12:39;;;;;;;4.70;3.30;;;18.40;99.90;;;;;;5086504;28;20204;-79
2022/06/30 06:15:05;;;;;;;6.50;3.37;;;18.40;99.90;;;;;;5088927;28;20505;-79
2022/06/30 06:17:31;;;;;;;8.10;3.93;;;18.50;99.90;;;;;;5089787;28;20437;-79
2022/06/30 06:19:58;;;;;;;4.90;3.03;;;18.60;99.90;;;;;;5087860;28;20930;-79
2022/06/30 06:22:24;;;;;;;9.33;3.87;;;18.70;99.90;;;;;;5073379;28;20467;-80
2022/06/30 06:24:49;;;;;;;8.80;4.27;;;18.80;99.90;;;;;;5075673;28;20958;-79
2022/06/30 06:27:15;;;;;;;9.50;4.67;;;18.90;99.90;;;;;;5069807;28;20422;-79
2022/06/30 06:29:41;;;;;;;8.37;4.00;;;19.00;99.90;;;;;;5074104;28;20181;-81
2022/06/30 06:32:07;;;;;;;5.27;3.50;;;19.20;99.90;;;;;;5077125;28;20712;-79
2022/06/30 06:34:33;;;;;;;5.77;3.50;;;19.40;99.90;;;;;;5080870;28;20423;-80
2022/06/30 06:36:58;;;;;;;5.20;3.30;;;19.50;99.90;;;;;;5087271;28;20433;-79
2022/06/30 06:39:24;;;;;;;6.63;3.47;;;19.70;99.90;;;;;;5082832;28;20874;-77
2022/06/30 06:41:49;;;;;;;11.27;4.30;;;19.90;99.90;;;;;;5088361;28;20264;-78
2022/06/30 06:44:15;;;;;;;8.87;4.10;;;20.00;99.90;;;;;;5081254;28;20224;-79
2022/06/30 06:46:41;;;;;;;3.93;2.93;;;20.10;99.90;;;;;;5090500;28;20828;-79
2022/06/30 06:49:07;;;;;;;5.60;3.00;;;20.20;99.90;;;;;;5078257;28;20183;-81
2022/06/30 06:51:34;;;;;;;6.20;3.40;;;20.40;99.90;;;;;;5078787;28;20264;-79
2022/06/30 06:54:00;;;;;;;6.40;3.40;;;20.70;99.90;;;;;;5078837;28;20417;-79
2022/06/30 06:56:27;;;;;;;9.03;3.30;;;20.80;99.90;;;;;;5080358;28;20434;-78
2022/06/30 06:58:52;;;;;;;9.63;3.30;;;20.90;99.90;;;;;;5092220;28;20438;-76
2022/06/30 07:01:18;;;;;;;6.60;2.80;;;21.00;99.90;;;;;;5086413;28;20426;-82
2022/06/30 07:03:44;;;;;;;4.17;2.83;;;21.20;99.90;;;;;;5088232;28;20212;-79
2022/06/30 07:06:09;;;;;;;13.33;3.27;;;21.30;99.90;;;;;;5078508;28;20558;-79
2022/06/30 07:08:36;;;;;;;15.63;3.13;;;21.50;99.90;;;;;;5094771;28;20184;-79
2022/06/30 07:11:03;;;;;;;4.67;2.70;;;21.60;99.90;;;;;;5091315;28;20768;-76
2022/06/30 07:13:28;;;;;;;6.93;3.50;;;21.70;99.90;;;;;;5078030;28;20443;-79
2022/06/30 07:15:54;;;;;;;7.40;3.30;;;22.00;99.90;;;;;;5086873;28;20431;-76
2022/06/30 07:18:20;;;;;;;10.40;2.73;;;22.10;99.90;;;;;;5076648;28;20200;-81
2022/06/30 07:20:46;;;;;;;6.00;3.10;;;22.30;99.90;;;;;;5088361;28;20177;-77
2022/06/30 07:23:11;;;;;;;5.00;3.00;;;22.50;99.90;;;;;;5084332;28;20232;-80
2022/06/30 07:25:37;;;;;;;7.07;3.40;;;22.70;99.90;;;;;;5087752;28;20501;-80
2022/06/30 07:28:03;;;;;;;5.40;2.77;;;23.00;99.90;;;;;;5085966;28;20184;-79
2022/06/30 07:30:29;;;;;;;5.77;3.30;;;23.50;99.90;;;;;;5079970;28;20201;-80
2022/06/30 07:32:55;;;;;;;8.60;3.30;;;23.80;99.90;;;;;;5083758;28;21087;-80
2022/06/30 07:35:20;;;;;;;5.13;3.30;;;24.20;99.90;;;;;;5089802;28;20187;-80
2022/06/30 07:37:46;;;;;;;5.53;2.80;;;24.60;99.90;;;;;;5089354;28;20185;-79
2022/06/30 07:40:13;;;;;;;4.60;2.50;;;24.80;99.90;;;;;;5088584;28;20710;-83
2022/06/30 07:42:39;;;;;;;7.37;3.13;;;25.20;99.90;;;;;;5090859;28;20208;-80
2022/06/30 07:45:06;;;;;;;4.05;2.47;;;26.20;99.90;;;;;;5095160;28;20441;-81
2022/06/30 07:47:32;;;;;;;12.38;3.17;;;27.20;98.20;;;;;;5090456;28;20191;-81
2022/06/30 07:49:58;;;;;;;5.40;2.38;;;28.20;95.10;;;;;;5088266;28;20188;-80
2022/06/30 07:52:23;;;;;;;4.68;2.60;;;29.00;93.60;;;;;;5091272;28;20187;-79
2022/06/30 07:54:50;;;;;;;3.67;2.03;;;29.60;93.20;;;;;;5094485;28;20567;-79
2022/06/30 07:57:17;;;;;;;5.57;2.53;;;29.90;90.90;;;;;;5095432;28;20215;-80
2022/06/30 07:59:43;;;;;;;12.48;2.58;;;30.50;91.00;;;;;;5082736;28;20181;-84
2022/06/30 08:02:08;;;;;;;5.78;2.50;;;30.60;88.80;;;;;;5092602;28;20227;-79
2022/06/30 08:04:34;;;;;;;6.78;2.83;;;31.40;85.00;;;;;;5098547;28;20180;-79
2022/06/30 08:07:03;;;;;;;4.63;2.90;;;31.60;83.90;;;;;;5097880;28;20206;-79
2022/06/30 08:09:29;;;;;;;6.53;2.80;;;31.60;82.70;;;;;;5096250;28;20187;-81
2022/06/30 08:11:55;;;;;;;7.30;2.67;;;31.30;82.60;;;;;;5094694;28;20723;-80
2022/06/30 08:14:22;;;;;;;3.92;2.10;;;31.50;85.50;;;;;;5090606;28;20183;-81
2022/06/30 08:16:48;;;;;;;4.60;2.30;;;31.50;81.90;;;;;;5089962;28;20227;-81
2022/06/30 08:19:14;;;;;;;6.15;2.33;;;30.90;84.30;;;;;;5084165;28;20679;-81
2022/06/30 08:21:39;;;;;;;4.63;1.90;;;30.70;83.80;;;;;;5086095;28;20196;-79
2022/06/30 08:24:05;;;;;;;3.03;1.83;;;31.00;82.70;;;;;;5096001;28;20219;-79
2022/06/30 08:26:31;;;;;;;8.77;2.15;;;31.60;78.80;;;;;;5086125;28;20655;-80
2022/06/30 08:28:57;;;;;;;6.30;2.50;;;31.20;80.10;;;;;;5092237;28;20207;-81
2022/06/30 08:31:23;;;;;;;3.83;2.53;;;31.30;80.50;;;;;;5089637;28;20180;-80
2022/06/30 08:33:50;;;;;;;5.35;2.00;;;31.40;77.50;;;;;;5088512;28;20564;-80
2022/06/30 08:36:17;;;;;;;6.35;2.40;;;31.50;79.90;;;;;;5092701;28;20218;-79
2022/06/30 08:38:43;;;;;;;3.65;2.17;;;31.30;78.50;;;;;;5089740;28;20172;-82
2022/06/30 08:43:54;;;;;;;7.47;3.15;;;31.10;79.90;;;;;;5075049;28;20211;-79
2022/06/30 08:46:22;;;;;;;4.15;2.03;;;31.80;81.30;;;;;;5091359;28;20181;-82
2022/06/30 08:48:48;;;;;;;3.40;1.48;;;32.00;77.40;;;;;;5084158;28;20196;-78
2022/06/30 08:51:15;;;;;;;3.45;2.20;;;31.80;71.40;;;;;;5082210;28;20173;-81
2022/06/30 08:53:57;;;;;;;4.50;2.10;;;32.00;74.90;;;;;;5087591;28;20200;-81
2022/06/30 08:56:24;;;;;;;5.30;2.03;;;32.40;74.20;;;;;;5084534;28;20184;-81
2022/06/30 08:58:51;;;;;;;6.60;2.45;;;32.00;75.40;;;;;;5085827;28;20177;-82
2022/06/30 09:01:19;;;;;;;7.30;2.17;;;30.70;77.00;;;;;;5096163;28;20169;-81
2022/06/30 09:03:46;;;;;;;2.63;1.83;;;29.90;81.20;;;;;;5088891;28;20200;-78
2022/06/30 09:06:12;;;;;;;9.23;1.98;;;29.60;84.30;;;;;;5094580;28;20204;-82
2022/06/30 09:08:38;;;;;;;4.38;2.47;;;29.70;82.00;;;;;;5099054;28;20187;-84
2022/06/30 09:11:03;;;;;;;5.05;2.45;;;30.40;80.00;;;;;;5096613;28;20200;-84
2022/06/30 09:13:50;;;;;;;4.90;2.40;;;30.50;80.40;;;;;;5105601;28;20193;-81
2022/06/30 09:16:17;;;;;;;3.88;2.10;;;30.00;80.40;;;;;;5111079;28;20172;-85
2022/06/30 09:18:44;;;;;;;9.18;2.78;;;29.50;80.50;;;;;;5108176;28;20164;-86
2022/06/30 09:21:15;;;;;;;6.32;2.33;;;29.00;85.10;;;;;;5112714;28;20236;-85
2022/06/30 09:23:44;;;;;;;12.75;2.15;;;29.40;81.40;;;;;;5103992;28;20200;-85
2022/06/30 09:26:19;;;;;;;3.38;2.03;;;29.60;80.90;;;;;;5096785;28;20180;-81
2022/06/30 09:28:56;;;;;;;4.72;1.95;;;30.00;79.80;;;;;;5090953;28;20209;-80
2022/06/30 09:31:45;;;;;;;7.25;2.58;;;29.50;80.20;;;;;;5081002;28;20237;-80
2022/06/30 09:34:21;;;;;;;10.18;1.80;;;28.90;83.40;;;;;;5093417;28;20237;-79
2022/06/30 09:36:48;;;;;;;5.05;2.60;;;29.60;78.20;;;;;;5085885;28;20204;-81
2022/06/30 09:39:16;;;;;;;7.78;2.45;;;29.90;77.90;;;;;;5085376;28;20195;-80
2022/06/30 09:41:43;;;;;;;3.83;2.50;;;30.10;80.60;;;;;;5086908;28;20220;-79
2022/06/30 09:44:29;;;;;;;4.28;2.30;;;30.80;74.70;;;;;;5084500;28;20199;-80
2022/06/30 09:47:01;;;;;;;7.63;2.38;;;30.50;75.20;;;;;;5083567;28;20766;-79
2022/06/30 09:49:32;;;;;;;10.18;2.25;;;30.40;78.10;;;;;;5086207;28;20183;-80
2022/06/30 09:51:59;;;;;;;4.00;2.22;;;30.20;77.90;;;;;;5093515;28;20202;-82
2022/06/30 09:54:26;;;;;;;4.22;2.30;;;30.30;78.80;;;;;;5090257;28;20176;-80
2022/06/30 09:57:07;;;;;;;2.92;2.03;;;30.20;78.00;;;;;;5084697;28;20198;-80
2022/06/30 09:59:34;;;;;;;4.40;2.17;;;30.30;81.10;;;;;;5088837;28;20191;-80
2022/06/30 10:02:06;;;;;;;4.10;2.03;;;30.50;81.10;;;;;;5085584;28;20200;-80
2022/06/30 10:04:31;;;;;;;4.60;2.30;;;31.00;78.90;;;;;;5084031;28;20172;-79
2022/06/30 10:06:57;;;;;;;6.32;2.45;;;31.30;74.10;;;;;;5087651;28;20172;-83
2022/06/30 10:09:25;;;;;;;5.47;2.22;;;31.00;78.00;;;;;;5088160;28;20239;-82
2022/06/30 10:11:52;;;;;;;11.27;2.38;;;30.90;76.30;;;;;;5083112;28;20203;-84
2022/06/30 10:14:19;;;;;;;3.40;1.95;;;31.00;78.80;;;;;;5075106;28;20191;-80
2022/06/30 10:16:45;;;;;;;4.10;1.83;;;30.60;75.10;;;;;;5076247;28;20541;-81
2022/06/30 10:19:13;;;;;;;4.68;2.25;;;30.00;75.40;;;;;;5075614;28;20195;-80
2022/06/30 10:21:40;;;;;;;4.03;2.58;;;30.20;80.60;;;;;;5075966;28;20216;-79
2022/06/30 10:24:06;;;;;;;6.63;2.00;;;29.90;78.30;;;;;;5081175;28;20652;-80
2022/06/30 10:27:16;;;;;;;4.90;2.05;;;30.10;79.30;;;;;;5089120;28;20183;-80
2022/06/30 10:29:23;;;;;;;4.90;2.65;;;29.70;77.30;;;;;;5077268;28;20621;-82
2022/06/30 10:32:03;;;;;;;6.18;2.28;;;29.70;82.40;;;;;;5077508;28;20240;-80
2022/06/30 10:34:40;;;;;;;6.32;2.08;;;29.80;78.70;;;;;;5077648;28;20237;-79
2022/06/30 10:37:35;;;;;;;3.35;1.77;;;29.90;78.60;;;;;;5084825;28;20191;-77
2022/06/30 10:40:14;;;;;;;5.38;2.30;;;30.00;76.80;;;;;;5076846;28;20325;-79
2022/06/30 10:42:55;;;;;;;2.83;1.90;;;29.90;80.00;;;;;;5092142;28;20299;-80
2022/06/30 10:45:27;;;;;;;8.90;3.05;;;29.60;77.50;;;;;;5089058;28;20176;-80
2022/06/30 10:48:07;;;;;;;9.35;1.98;;;29.30;80.20;;;;;;5080127;28;20184;-80
2022/06/30 10:50:34;;;;;;;6.15;2.17;;;29.30;78.30;;;;;;5079433;28;20188;-82
2022/06/30 10:53:01;;;;;;;5.25;2.33;;;29.00;76.70;;;;;;5081880;28;20204;-81
2022/06/30 10:55:27;;;;;;;2.90;1.80;;;29.10;80.50;;;;;;5081059;28;20207;-79
2022/06/30 10:58:07;;;;;;;9.55;2.40;;;29.00;77.00;;;;;;5088444;28;20672;-80
2022/06/30 11:01:01;;;;;;;5.00;1.75;;;29.20;76.10;;;;;;5081907;28;20607;-79
2022/06/30 11:03:33;;;;;;;3.97;2.17;;;29.20;77.10;;;;;;5085675;28;20965;-77
2022/06/30 11:06:10;;;;;;;5.63;3.22;;;29.40;81.80;;;;;;5080677;28;20181;-79
2022/06/30 11:11:22;;;;;;;8.20;2.83;;;29.40;78.90;;;;;;5082354;28;20211;-80
2022/06/30 11:13:55;;;;;;;17.38;2.88;;;29.50;78.70;;;;;;5083705;28;20661;-79
2022/06/30 11:16:22;;;;;;;4.55;1.90;;;29.50;79.10;;;;;;5078500;28;20181;-81
2022/06/30 11:18:48;;;;;;;4.25;2.17;;;29.50;80.70;;;;;;5083635;28;20184;-79
2022/06/30 11:21:14;;;;;;;2.80;1.70;;;29.80;78.00;;;;;;5075062;28;20180;-76
2022/06/30 11:23:45;;;;;;;6.80;1.98;;;29.80;78.70;;;;;;5080669;28;20208;-81
2022/06/30 11:28:57;;;;;;;3.58;2.00;;;30.00;80.40;;;;;;5090114;28;20237;-81
2022/06/30 11:31:34;;;;;;;3.75;2.10;;;29.50;78.30;;;;;;5089814;28;20176;-80
2022/06/30 11:34:00;;;;;;;5.57;2.60;;;29.70;79.30;;;;;;5085915;28;20646;-79
2022/06/30 11:36:26;;;;;;;4.07;2.35;;;29.90;75.70;;;;;;5089435;28;20168;-79
2022/06/30 11:39:07;;;;;;;3.20;1.85;;;29.60;76.80;;;;;;5083832;28;20220;-79
2022/06/30 11:44:20;;;;;;;4.10;2.05;;;30.30;72.80;;;;;;5079862;28;20697;-79
2022/06/30 11:47:06;;;;;;;5.57;2.55;;;30.00;79.00;;;;;;5083929;28;20208;-79
2022/06/30 11:49:53;;;;;;;4.63;2.63;;;30.00;79.20;;;;;;5088143;28;20225;-79
2022/06/30 11:52:20;;;;;;;3.28;2.03;;;29.90;80.40;;;;;;5086555;28;20203;-79
2022/06/30 11:54:49;;;;;;;5.68;2.45;;;29.70;78.90;;;;;;5080380;28;20688;-79
2022/06/30 11:57:16;;;;;;;7.50;2.33;;;29.70;77.30;;;;;;5089501;28;20270;-80
2022/06/30 11:59:50;;;;;;;4.68;2.60;;;29.80;75.90;;;;;;5079493;28;20177;-77
2022/06/30 12:02:16;;;;;;;9.57;2.75;;;30.10;73.10;;;;;;5080637;28;20397;-81
2022/06/30 12:04:43;;;;;;;8.57;2.83;;;30.10;76.20;;;;;;5077195;28;20210;-80
2022/06/30 12:07:11;;;;;;;12.40;2.67;;;29.90;76.10;;;;;;5080401;28;20188;-80
2022/06/30 12:09:38;;;;;;;10.68;2.85;;;30.00;79.10;;;;;;5089462;28;20304;-82
2022/06/30 12:12:04;;;;;;;3.65;2.15;;;30.10;79.70;;;;;;5083609;28;20231;-80
2022/06/30 12:14:37;;;;;;;7.68;2.25;;;29.70;78.30;;;;;;5084711;28;20234;-79
2022/06/30 12:17:07;;;;;;;5.88;2.47;;;29.60;80.30;;;;;;5084243;28;20188;-80
2022/06/30 12:19:33;;;;;;;3.90;2.30;;;29.50;80.40;;;;;;5087164;28;20204;-79
2022/06/30 12:22:02;;;;;;;4.10;2.38;;;29.60;79.10;;;;;;5083934;28;20238;-79
2022/06/30 12:24:28;;;;;;;3.33;1.85;;;30.00;79.80;;;;;;5085841;28;20759;-79
2022/06/30 12:26:57;;;;;;;3.97;2.42;;;30.20;78.30;;;;;;5081403;28;20206;-81
2022/06/30 12:29:24;;;;;;;12.68;2.60;;;30.20;77.90;;;;;;5083979;28;20203;-80
2022/06/30 12:32:06;;;;;;;5.60;3.10;;;30.20;74.90;;;;;;5084361;28;20286;-76
2022/06/30 12:34:47;;;;;;;3.22;2.08;;;30.40;74.50;;;;;;5083842;28;20254;-79
2022/06/30 12:37:13;;;;;;;10.73;2.47;;;29.90;75.80;;;;;;5092586;28;20219;-78
2022/06/30 12:39:44;;;;;;;10.35;2.90;;;30.00;76.60;;;;;;5094458;28;20187;-81
2022/06/30 12:42:11;;;;;;;6.05;2.40;;;30.00;76.90;;;;;;5092644;28;20211;-79
2022/06/30 12:44:37;;;;;;;2.80;1.95;;;29.90;75.60;;;;;;5083313;28;20176;-78
2022/06/30 12:47:08;;;;;;;7.68;2.83;;;30.00;77.60;;;;;;5080286;28;20180;-83
2022/06/30 12:49:35;;;;;;;4.50;2.65;;;29.90;74.80;;;;;;5087529;28;20175;-79
2022/06/30 12:52:11;;;;;;;4.53;2.38;;;29.90;76.70;;;;;;5079215;28;20196;-75
2022/06/30 12:54:37;;;;;;;10.68;2.63;;;30.10;77.10;;;;;;5091754;28;20258;-79
2022/06/30 12:57:05;;;;;;;6.97;2.83;;;30.30;77.00;;;;;;5079604;28;20706;-80
2022/06/30 12:59:30;;;;;;;10.35;2.50;;;30.30;77.00;;;;;;5088381;28;20180;-78
2022/06/30 13:02:00;;;;;;;7.88;2.30;;;30.50;76.70;;;;;;5079213;28;20211;-77
2022/06/30 13:04:32;;;;;;;6.30;3.30;;;30.40;78.80;;;;;;5079916;28;20177;-79
2022/06/30 13:06:59;;;;;;;9.57;2.83;;;29.90;76.20;;;;;;5078791;28;20196;-78